aviador You're here:

PAWS Decoded Metar

WASILLA in AK, USA
Report Time2017-09-26 06:56:00
UTC Time2017-09-26 07:25:42
Flight Rules vfr VFR
Wind090° at 03 kt
W.Decomp.*RWY 03: 2.4 kt HW 1.8 kt RCW
W.Rank090° ranks 4
Current wind is below 090° avg. (5.6)
Visibility9999 m
Phenomena:N/A
Clouds:Overcast 070 Hf
Expected CloudBase > 800 ft AGL from Temp-Dew spread
Ceiling7,000 ft
Temp08°C (ISA -6)
Dew Point06°C (87% RH)
AAT6.0°C
QNH1010 hPa
Density Alt-174 ft
Elevation351 ft
Report Wrong Elevation
Raw Report
PAWS 260656Z AUTO 09003KT 10SM OVC070 08/06 A2983 RMK AO2 SLP118
T00780061=

Extra information for PAWS:More info

Metar Taf Metar & Taf Last 4 Metars F.Rules Stats Wind Profile Meteogram Temp Stats Airport Information Weather charts Add Link Nearby VenuesMetar ALERT Operation Metar Decoded Social comments

AIRNAV info for PAWS